createdAt,value
2016-12-19T09:28:08.715Z,17.59
2016-12-19T09:28:49.484Z,17.63
2016-12-19T09:29:30.265Z,17.63
2016-12-19T09:30:11.070Z,17.71
2016-12-19T09:30:51.679Z,17.73
2016-12-19T09:31:32.418Z,17.73
2016-12-19T09:32:13.231Z,17.81
2016-12-19T09:32:53.988Z,17.82
2016-12-19T09:33:34.702Z,17.92
2016-12-19T09:34:15.407Z,17.97
2016-12-19T09:34:56.116Z,18.02
2016-12-19T09:35:36.817Z,18.04
2016-12-19T09:36:17.522Z,18.04
2016-12-19T09:36:58.227Z,18.07
2016-12-19T09:37:38.987Z,18.04
2016-12-19T09:38:19.725Z,18.13
2016-12-19T09:39:00.448Z,18.21
2016-12-19T09:39:41.178Z,18.28
2016-12-19T09:40:21.910Z,18.43
2016-12-19T09:41:02.677Z,18.44
2016-12-19T09:41:43.411Z,18.46
2016-12-19T09:42:24.128Z,18.58
2016-12-19T09:43:04.843Z,18.68
2016-12-19T09:43:45.628Z,18.77
2016-12-19T09:44:26.360Z,20.41
2016-12-19T09:45:07.076Z,20.59
2016-12-19T09:45:47.782Z,20.21
2016-12-19T09:46:28.484Z,19.83
2016-12-19T09:47:09.194Z,19.58
2016-12-19T09:47:50.047Z,19.51
2016-12-19T09:48:30.772Z,19.57
2016-12-19T09:49:11.487Z,19.69
2016-12-19T09:49:52.281Z,20.2
2016-12-19T09:50:32.951Z,20.38
2016-12-19T09:51:13.663Z,20.06
2016-12-19T09:51:54.420Z,19.8
2016-12-19T09:52:35.130Z,19.6
2016-12-19T09:53:15.843Z,19.39
2016-12-19T09:53:56.544Z,19.25
2016-12-19T09:54:37.270Z,19.25
2016-12-19T09:55:17.975Z,19.28
2016-12-19T09:55:58.689Z,19.33
2016-12-19T09:56:39.406Z,19.31
2016-12-19T09:57:20.232Z,19.4
2016-12-19T09:58:00.943Z,19.39
2016-12-19T09:58:41.670Z,19.53
2016-12-19T09:59:22.399Z,19.54
2016-12-19T10:00:03.137Z,19.61
2016-12-19T10:00:43.851Z,19.68
2016-12-19T10:01:24.571Z,19.66
2016-12-19T10:02:05.303Z,19.66
2016-12-19T10:02:46.013Z,19.65
2016-12-19T10:03:26.725Z,19.47
2016-12-19T10:04:07.451Z,19.53
2016-12-19T10:04:48.173Z,19.4
2016-12-19T10:05:28.892Z,19.51
2016-12-19T10:06:09.678Z,19.42
2016-12-19T10:06:50.404Z,19.42
2016-12-19T10:07:31.179Z,19.4
2016-12-19T10:08:11.890Z,19.42
2016-12-19T10:08:52.654Z,19.42
2016-12-19T10:09:33.365Z,19.38
2016-12-19T10:10:14.104Z,19.48
2016-12-19T10:10:54.810Z,19.51
2016-12-19T10:11:35.603Z,19.38
2016-12-19T10:12:16.377Z,19.53
2016-12-19T10:12:57.041Z,19.6
2016-12-19T10:13:37.822Z,19.65
2016-12-19T10:14:18.532Z,19.72
2016-12-19T10:14:59.257Z,19.76
2016-12-19T10:15:39.972Z,19.75
2016-12-19T10:16:20.704Z,19.78
2016-12-19T10:17:01.452Z,19.75
2016-12-19T10:17:42.205Z,19.78
2016-12-19T10:18:22.951Z,19.97
2016-12-19T10:19:03.785Z,19.88
2016-12-19T10:19:44.509Z,19.93
2016-12-19T10:20:25.229Z,20.03
2016-12-19T10:21:05.939Z,20.15
2016-12-19T10:21:46.664Z,20.06
2016-12-19T10:22:27.391Z,20.02
2016-12-19T10:23:08.106Z,20.1
2016-12-19T10:23:48.844Z,20.24
2016-12-19T10:24:29.550Z,20.13
2016-12-19T10:25:10.257Z,20.06
2016-12-19T10:25:50.972Z,20
2016-12-19T10:26:31.677Z,19.93
2016-12-19T10:27:12.395Z,19.91
2016-12-19T10:27:53.114Z,19.94
2016-12-19T10:28:33.830Z,19.84
2016-12-19T10:29:14.538Z,19.9
2016-12-19T10:29:55.267Z,19.93
2016-12-19T10:30:35.988Z,19.95
2016-12-19T10:31:16.699Z,19.93
2016-12-19T10:31:57.404Z,19.95
2016-12-19T10:32:38.102Z,19.93
2016-12-19T10:33:18.830Z,20.02
2016-12-19T10:33:59.543Z,20.05
2016-12-19T10:34:40.256Z,20.21
2016-12-19T10:35:20.972Z,20.23
2016-12-19T10:36:01.679Z,20.56
2016-12-19T10:36:42.388Z,20.87
2016-12-19T10:37:23.111Z,21.24
2016-12-19T10:38:03.883Z,21.44
2016-12-19T10:38:44.595Z,22.07
2016-12-19T10:39:25.324Z,24.35
2016-12-19T10:40:06.049Z,23.82
2016-12-19T10:40:46.764Z,23.43
2016-12-19T10:41:27.520Z,23.19
2016-12-19T10:42:08.237Z,22.49
2016-12-19T10:42:48.975Z,22.2
2016-12-19T10:43:29.683Z,21.85
2016-12-19T10:44:10.392Z,21.51
2016-12-19T10:44:51.186Z,21.26
2016-12-19T10:45:31.901Z,21.27
2016-12-19T10:46:12.624Z,21.59
2016-12-19T10:46:53.340Z,21.82
2016-12-19T10:47:34.057Z,22.17
2016-12-19T10:48:14.766Z,22.23
2016-12-19T10:48:55.553Z,22.09
2016-12-19T10:49:36.311Z,21.74
2016-12-19T10:50:17.026Z,21.82
2016-12-19T10:50:57.849Z,21.91
2016-12-19T10:51:38.478Z,21.67
2016-12-19T10:52:19.193Z,21.71
2016-12-19T10:52:59.950Z,21.76
2016-12-19T10:53:40.657Z,21.69
2016-12-19T10:54:21.378Z,21.64
2016-12-19T10:55:02.085Z,21.61
2016-12-19T10:55:42.794Z,21.67
2016-12-19T10:56:23.513Z,21.63
2016-12-19T10:57:04.224Z,21.95
2016-12-19T10:57:44.930Z,21.97
2016-12-19T10:58:25.646Z,21.99
2016-12-19T10:59:06.377Z,21.82
2016-12-19T10:59:47.093Z,21.72
2016-12-19T11:02:32.066Z,19.79
2016-12-19T11:03:12.786Z,19.2
2016-12-19T11:03:53.514Z,18.91
2016-12-19T14:50:48.728Z,21.59
2016-12-19T14:51:29.445Z,21.74
2016-12-19T14:52:10.154Z,21.63
2016-12-19T14:52:50.854Z,21.61
2016-12-19T14:53:31.632Z,21.69
2016-12-19T14:54:12.389Z,21.82
2016-12-19T14:54:53.042Z,21.97
2016-12-19T14:55:33.678Z,22.12
2016-12-19T14:56:14.335Z,21.69
2016-12-19T14:56:55.035Z,21.51
2016-12-19T14:57:35.675Z,21.41
2016-12-19T14:58:16.372Z,21.23
2016-12-19T14:58:57.001Z,21.21
2016-12-19T14:59:37.620Z,21.14
2016-12-19T15:00:18.251Z,21.19
2016-12-19T15:00:58.880Z,21.16
2016-12-19T15:01:39.530Z,21.17
2016-12-19T15:02:20.151Z,21.21
2016-12-19T15:03:00.774Z,21.14
2016-12-19T15:03:41.401Z,21.21
2016-12-19T15:04:22.034Z,21.26
2016-12-19T15:05:02.663Z,21.19
2016-12-19T15:05:43.292Z,21.2
2016-12-19T15:06:23.924Z,21.16
2016-12-19T15:07:04.552Z,21.19
2016-12-19T15:07:45.173Z,21.24
2016-12-19T15:08:25.802Z,21.16
2016-12-19T15:09:06.431Z,21.09
2016-12-19T15:09:47.060Z,21.09
2016-12-19T15:10:27.680Z,21.04
2016-12-19T15:11:08.316Z,21.09
2016-12-19T15:11:48.946Z,20.96
2016-12-19T15:12:29.571Z,20.9
2016-12-19T15:13:10.230Z,20.84
2016-12-19T15:13:50.879Z,20.81
2016-12-19T15:14:31.587Z,20.83
2016-12-19T15:15:12.305Z,20.74
2016-12-19T15:15:52.950Z,20.66
2016-12-19T15:16:33.591Z,20.58
2016-12-19T15:17:14.389Z,20.51
2016-12-19T15:17:55.025Z,20.56
2016-12-19T15:18:35.657Z,20.68
2016-12-19T15:19:16.362Z,20.81
2016-12-19T15:19:56.990Z,20.9
2016-12-19T15:20:37.610Z,21.08
2016-12-19T15:21:18.289Z,21.24
2016-12-19T15:21:58.946Z,21.24
2016-12-19T15:22:39.587Z,21.21
2016-12-19T15:23:20.240Z,21.21
2016-12-19T15:24:00.916Z,21.21
2016-12-19T15:24:41.557Z,21.2
2016-12-19T15:25:22.194Z,21.3
2016-12-19T15:26:02.923Z,21.29
2016-12-19T15:26:43.556Z,21.38
2016-12-19T15:27:24.188Z,21.38
2016-12-19T15:28:04.817Z,21.45
2016-12-19T15:28:45.444Z,21.36
2016-12-19T15:29:26.134Z,21.45
2016-12-19T15:30:06.847Z,21.45
2016-12-19T15:30:47.472Z,21.44
2016-12-19T15:31:28.228Z,21.56
2016-12-19T15:32:08.874Z,21.66
2016-12-19T15:32:49.492Z,21.67
2016-12-19T15:33:30.180Z,21.72
2016-12-19T15:34:10.890Z,21.78
2016-12-19T15:34:51.525Z,21.79
2016-12-19T15:35:32.157Z,21.78
2016-12-19T15:36:12.864Z,21.78
2016-12-19T15:36:53.507Z,21.78
2016-12-19T15:37:34.150Z,21.88
2016-12-19T15:38:14.787Z,21.81
2016-12-19T15:38:55.417Z,21.78
2016-12-19T15:39:36.049Z,21.88
2016-12-19T15:40:16.695Z,21.88
2016-12-19T15:40:57.320Z,21.9
2016-12-19T15:41:37.952Z,21.92
2016-12-19T15:42:18.606Z,21.92
2016-12-19T15:42:59.329Z,21.92
2016-12-19T15:43:39.970Z,21.91
2016-12-19T15:44:20.672Z,21.99
2016-12-19T15:45:01.313Z,22.1
2016-12-19T15:45:41.991Z,22.1
2016-12-19T15:46:22.602Z,22.07
2016-12-19T15:47:03.297Z,22.01
2016-12-19T15:47:43.952Z,22.07
2016-12-19T15:48:24.600Z,22.01
2016-12-19T15:49:05.234Z,22.01
2016-12-19T15:49:45.866Z,21.99
2016-12-19T15:50:26.489Z,21.98
2016-12-19T15:51:07.150Z,22.04
2016-12-19T15:51:47.872Z,22.07
2016-12-19T15:52:28.494Z,22.01
2016-12-19T15:53:09.138Z,22.12
2016-12-19T15:53:49.834Z,22.13
2016-12-19T15:54:30.460Z,22.17
2016-12-19T15:55:11.114Z,22.17
2016-12-19T15:55:51.794Z,22.17
2016-12-19T15:56:32.421Z,22.2
2016-12-19T15:57:13.048Z,22.23
2016-12-19T15:57:53.687Z,22.31
2016-12-19T15:58:34.326Z,22.29
2016-12-19T15:59:14.994Z,22.29
2016-12-19T15:59:55.629Z,22.28
2016-12-19T16:00:36.266Z,22.34
2016-12-19T16:01:16.905Z,22.35
2016-12-19T16:01:57.538Z,22.43
2016-12-19T16:02:38.168Z,22.25
2016-12-19T16:03:18.810Z,22.28
2016-12-19T16:03:59.491Z,22.41
2016-12-19T16:04:40.121Z,22.49
2016-12-19T16:05:20.753Z,22.49
2016-12-19T16:06:01.445Z,22.47
2016-12-19T16:06:42.078Z,22.5
2016-12-19T16:07:22.794Z,22.52
2016-12-19T16:08:03.430Z,22.5
2016-12-19T16:08:44.078Z,22.47
2016-12-19T16:09:24.712Z,22.6
2016-12-19T16:10:05.385Z,22.59
2016-12-19T16:10:46.072Z,22.72
2016-12-19T16:11:26.698Z,22.77
2016-12-19T16:12:07.329Z,22.78
2016-12-19T16:12:47.961Z,22.68
2016-12-19T16:13:28.589Z,22.72
2016-12-19T16:14:09.215Z,22.71
2016-12-19T16:14:49.958Z,22.74
2016-12-19T16:15:30.589Z,22.74
2016-12-19T16:16:11.234Z,22.78
2016-12-19T16:16:51.869Z,22.75
2016-12-19T16:17:32.507Z,22.75
2016-12-19T16:18:13.148Z,22.78
2016-12-19T16:18:53.807Z,22.84
2016-12-19T16:19:34.434Z,21.11
2016-12-19T16:20:15.072Z,21.3
2016-12-19T16:20:55.735Z,21.54
2016-12-19T16:21:36.368Z,21.95
2016-12-19T16:22:17.015Z,22.04
2016-12-19T16:22:57.645Z,22.19
2016-12-19T16:23:38.280Z,22.34
2016-12-19T16:24:19.080Z,22.39
2016-12-19T16:24:59.795Z,22.44
2016-12-19T16:25:40.500Z,22.52
2016-12-19T16:26:21.150Z,22.49
2016-12-19T16:27:01.774Z,22.62
2016-12-19T16:27:42.437Z,22.54
2016-12-19T16:28:23.062Z,22.59
2016-12-19T16:29:03.692Z,22.59
2016-12-19T16:29:44.327Z,22.54
2016-12-19T16:30:24.955Z,22.6
2016-12-19T16:31:05.618Z,22.64
2016-12-19T16:31:46.265Z,22.69
2016-12-19T16:32:26.914Z,22.71
2016-12-19T16:33:07.560Z,22.77
2016-12-19T16:33:48.277Z,22.83
2016-12-19T16:34:28.906Z,22.94
2016-12-19T16:35:09.662Z,22.92
2016-12-19T16:35:50.305Z,22.83
2016-12-19T16:36:31.041Z,22.86
2016-12-19T16:37:11.682Z,22.83
2016-12-19T16:37:52.313Z,22.83
2016-12-19T16:38:32.945Z,22.83
2016-12-19T16:39:13.577Z,22.84
2016-12-19T16:39:54.217Z,22.83
2016-12-19T16:40:34.853Z,22.74
2016-12-19T16:41:15.528Z,22.83
2016-12-19T16:41:56.216Z,22.86
2016-12-19T16:42:36.841Z,22.82
2016-12-19T16:43:17.484Z,22.9
2016-12-19T16:43:58.181Z,22.83
2016-12-19T16:44:38.823Z,22.8
2016-12-19T16:45:19.455Z,22.84
2016-12-19T16:46:00.120Z,22.8
2016-12-19T16:46:40.747Z,22.77
2016-12-19T16:47:21.386Z,22.84
2016-12-19T16:48:02.148Z,22.75
2016-12-19T16:48:42.791Z,22.83
2016-12-19T16:49:23.441Z,22.8
2016-12-19T16:50:04.098Z,22.8
2016-12-19T16:50:44.745Z,22.74
2016-12-19T16:51:25.431Z,22.62
2016-12-19T16:52:06.066Z,22.59
2016-12-19T16:52:46.704Z,22.59
2016-12-19T16:53:27.351Z,22.71
2016-12-19T16:54:07.982Z,22.77
2016-12-19T16:54:48.701Z,22.8
2016-12-19T16:55:29.332Z,22.78
2016-12-19T16:56:09.975Z,22.77
2016-12-19T16:56:50.664Z,22.78
2016-12-19T16:57:31.347Z,22.87
2016-12-19T16:58:11.983Z,22.82
2016-12-19T16:58:52.642Z,22.93
2016-12-19T16:59:33.354Z,22.92
2016-12-19T17:00:14.037Z,22.97
2016-12-19T17:00:54.688Z,22.94
2016-12-19T17:01:35.397Z,22.92
2016-12-19T17:02:16.052Z,22.8
2016-12-19T17:02:56.697Z,22.77
2016-12-19T17:03:37.347Z,22.83
2016-12-19T17:04:17.979Z,22.8
2016-12-19T17:04:58.618Z,22.82
2016-12-19T17:05:39.243Z,22.89
2016-12-19T17:06:19.914Z,22.71
2016-12-19T17:07:00.542Z,22.65
2016-12-19T17:07:41.232Z,22.74
2016-12-19T17:08:21.868Z,22.82
2016-12-19T17:09:02.497Z,22.83
2016-12-19T17:09:43.130Z,22.75
2016-12-19T17:10:23.753Z,22.89
2016-12-19T17:11:04.379Z,22.77
2016-12-19T17:11:45.013Z,22.72
2016-12-19T17:12:25.678Z,22.84
2016-12-19T17:13:06.315Z,22.92
2016-12-19T17:13:46.946Z,22.92
2016-12-19T17:14:27.632Z,23.05
2016-12-19T17:15:08.263Z,23.05
2016-12-19T17:15:48.890Z,23.11
2016-12-19T17:16:29.522Z,23.22
2016-12-19T17:17:10.162Z,23.15
2016-12-19T17:17:50.799Z,23.05
2016-12-19T17:18:31.428Z,23.04
2016-12-19T17:19:12.071Z,22.97
2016-12-19T17:19:52.698Z,22.94
2016-12-19T17:20:33.390Z,22.97
2016-12-19T17:21:14.028Z,22.94
2016-12-19T17:21:54.693Z,22.94
2016-12-19T17:22:35.396Z,22.96
2016-12-19T17:23:16.032Z,22.82
2016-12-19T17:23:56.664Z,22.78
2016-12-19T17:24:37.299Z,22.72
2016-12-19T17:25:17.938Z,22.78
2016-12-19T17:25:58.558Z,22.64
2016-12-19T17:26:39.196Z,22.54
2016-12-19T17:27:19.837Z,22.59
2016-12-19T17:28:00.512Z,22.78
2016-12-19T17:28:41.158Z,22.72
2016-12-19T17:29:21.792Z,22.57
2016-12-19T17:30:02.433Z,22.5
2016-12-19T17:30:43.154Z,22.56
2016-12-19T17:31:23.783Z,22.53
2016-12-19T17:32:04.421Z,22.41
2016-12-19T17:32:45.078Z,22.44
2016-12-19T17:33:25.767Z,22.39
2016-12-19T17:34:06.399Z,22.38
2016-12-19T17:34:47.103Z,22.38
2016-12-19T17:35:27.830Z,22.43
2016-12-19T17:36:08.459Z,22.49
2016-12-19T17:36:49.136Z,22.53
2016-12-19T17:37:29.856Z,22.65
2016-12-19T17:38:10.512Z,22.82
2016-12-19T17:38:51.169Z,22.86
2016-12-19T17:39:31.878Z,22.82
2016-12-19T17:40:12.665Z,23.01
2016-12-19T17:40:53.302Z,22.92
2016-12-19T17:41:33.971Z,22.93
2016-12-19T17:42:14.696Z,23.01
2016-12-19T17:42:55.363Z,23.22
2016-12-19T17:43:36.000Z,23.38
2016-12-19T17:44:16.714Z,23.5
2016-12-19T17:44:57.343Z,23.34
2016-12-19T17:45:37.984Z,23.23
2016-12-19T17:46:18.651Z,23.15
2016-12-19T17:46:59.384Z,23.22
2016-12-19T17:47:40.011Z,23.22
2016-12-19T17:48:20.714Z,23.19
2016-12-19T17:49:01.417Z,22.96
2016-12-19T17:49:42.048Z,22.96
2016-12-19T17:50:22.683Z,23.01
2016-12-19T17:51:03.329Z,23.01
2016-12-19T17:51:43.962Z,22.92
2016-12-19T17:52:24.612Z,22.99
2016-12-19T17:53:05.253Z,23.19
2016-12-19T17:53:45.945Z,23.27
2016-12-19T17:54:26.596Z,23.32
2016-12-19T17:55:07.282Z,23.45
2016-12-19T17:55:47.926Z,23.34
2016-12-19T17:56:28.560Z,23.24
2016-12-19T17:57:09.198Z,23.04
2016-12-19T17:57:49.832Z,22.89
2016-12-19T17:58:30.464Z,22.82
2016-12-19T17:59:11.096Z,22.78
2016-12-19T17:59:51.755Z,22.84
2016-12-19T18:00:32.390Z,22.75
2016-12-19T18:01:13.025Z,22.82
2016-12-19T18:01:53.671Z,22.68
2016-12-19T18:02:34.311Z,22.53
2016-12-19T18:03:14.949Z,22.57
2016-12-19T18:03:55.588Z,22.46
2016-12-19T18:04:36.218Z,22.29
2016-12-19T18:05:16.860Z,22.2
2016-12-19T18:05:57.497Z,22.13
2016-12-19T18:06:38.135Z,21.98
2016-12-19T18:07:18.773Z,22.1
2016-12-19T18:07:59.506Z,22.09
2016-12-19T18:08:40.152Z,22.04
2016-12-19T18:09:20.797Z,22.2
2016-12-19T18:10:02.478Z,22.19
2016-12-19T18:10:43.215Z,22.25
2016-12-19T18:11:23.818Z,22.19
2016-12-19T18:12:04.450Z,22.25
2016-12-19T18:12:45.085Z,22.16
2016-12-19T18:13:25.719Z,22.06
2016-12-19T18:14:06.384Z,22.02
2016-12-19T18:14:47.026Z,22.01
2016-12-19T18:15:27.653Z,22.01
2016-12-19T18:16:08.301Z,22.06
2016-12-19T18:16:48.942Z,22.07
2016-12-19T18:17:29.585Z,22.09
2016-12-19T18:18:10.219Z,22.1
2016-12-19T18:18:50.851Z,21.94
2016-12-19T18:19:31.498Z,21.9
2016-12-19T18:20:12.143Z,21.76
2016-12-19T18:20:52.775Z,21.63
2016-12-19T18:21:33.409Z,21.57
2016-12-19T18:22:14.064Z,21.56
2016-12-19T18:22:54.727Z,21.44
2016-12-19T18:23:35.381Z,21.35
2016-12-19T18:24:16.017Z,21.26
2016-12-19T18:24:56.710Z,21.27
2016-12-19T18:25:37.341Z,21.24
2016-12-19T18:26:17.989Z,21.26
2016-12-19T18:26:58.632Z,21.39
2016-12-19T18:27:39.284Z,21.41
2016-12-19T18:28:19.905Z,21.57
2016-12-19T18:29:00.539Z,21.57
2016-12-19T18:29:41.175Z,21.61
2016-12-19T18:30:21.800Z,21.67
2016-12-19T18:31:02.429Z,21.64
2016-12-19T18:31:43.069Z,21.67
2016-12-19T18:32:23.747Z,21.74
2016-12-19T18:33:04.384Z,21.78
2016-12-19T18:33:45.021Z,21.67
2016-12-19T18:34:25.673Z,21.71
2016-12-19T18:35:06.298Z,21.71
2016-12-19T18:35:46.934Z,21.71
2016-12-19T18:36:27.598Z,21.66
2016-12-19T18:37:08.271Z,21.72
2016-12-19T18:37:48.920Z,21.75
2016-12-19T18:38:29.559Z,21.67
2016-12-19T18:39:10.299Z,21.61
2016-12-19T18:39:50.937Z,21.69
2016-12-19T18:40:31.584Z,21.59
2016-12-19T18:41:12.330Z,21.6
2016-12-19T18:41:53.068Z,21.59
2016-12-19T18:42:33.705Z,21.6
2016-12-19T18:43:14.336Z,21.59
2016-12-19T18:43:55.042Z,21.61
2016-12-19T18:44:35.673Z,21.56
2016-12-19T18:45:16.364Z,21.56
2016-12-19T18:45:57.057Z,21.5
2016-12-19T18:46:37.773Z,21.56
2016-12-19T18:47:18.360Z,21.56
2016-12-19T18:47:59.038Z,21.42
2016-12-19T18:48:39.667Z,21.45
2016-12-19T18:49:20.310Z,21.45
2016-12-19T18:50:00.957Z,21.44
2016-12-19T18:50:41.592Z,21.45
2016-12-19T18:51:22.252Z,21.38
2016-12-19T18:52:02.885Z,21.38
2016-12-19T18:52:43.522Z,21.35
2016-12-19T18:53:24.165Z,21.34
2016-12-19T18:54:04.805Z,21.21
2016-12-19T18:54:45.483Z,21.16
2016-12-19T18:55:26.119Z,21.26
2016-12-19T18:56:06.758Z,21.14
2016-12-19T18:56:47.413Z,21.16
2016-12-19T18:57:28.098Z,21.17
2016-12-19T18:58:08.739Z,21.09
2016-12-19T18:58:49.434Z,21.11
2016-12-19T18:59:30.068Z,21.16
2016-12-19T19:00:10.705Z,21.06
2016-12-19T19:00:51.405Z,21.04
2016-12-19T19:01:32.034Z,21.05
2016-12-19T19:02:12.667Z,20.98
2016-12-19T19:02:53.309Z,20.98
2016-12-19T19:03:33.972Z,20.96
2016-12-19T19:04:14.623Z,20.91
2016-12-19T19:04:55.257Z,20.93
2016-12-19T19:05:35.895Z,20.86
2016-12-19T19:06:16.616Z,20.87
2016-12-19T19:06:57.245Z,20.89
2016-12-19T19:07:37.965Z,20.86
2016-12-19T19:08:18.625Z,20.81
2016-12-19T19:08:59.336Z,20.83
2016-12-19T19:09:39.960Z,20.72
2016-12-19T19:10:20.602Z,20.83
2016-12-19T19:11:01.228Z,20.79
2016-12-19T19:11:41.892Z,20.72
2016-12-19T19:12:22.540Z,20.74
2016-12-19T19:13:03.197Z,20.68
2016-12-19T19:13:43.838Z,20.76
2016-12-19T19:14:24.475Z,20.68
2016-12-19T19:15:05.107Z,20.65
2016-12-19T19:15:45.794Z,20.58
2016-12-19T19:16:26.454Z,20.58
2016-12-19T19:17:07.095Z,20.62
2016-12-19T19:17:47.769Z,20.59
2016-12-19T19:18:28.409Z,20.68
2016-12-19T19:19:09.089Z,20.58
2016-12-19T19:19:49.722Z,20.61
2016-12-19T19:20:30.406Z,20.49
2016-12-19T19:21:11.062Z,20.56
2016-12-19T19:21:51.699Z,20.59
2016-12-19T19:22:33.434Z,20.43
2016-12-19T19:23:14.088Z,20.51
2016-12-19T19:23:54.746Z,20.46
2016-12-19T19:24:35.378Z,20.53
2016-12-19T19:25:16.013Z,20.42
2016-12-19T19:25:56.644Z,20.42
2016-12-19T19:26:37.324Z,20.41
2016-12-19T19:27:17.959Z,20.46
2016-12-19T19:27:58.625Z,20.5
2016-12-19T19:28:39.301Z,20.47
2016-12-19T19:29:19.934Z,20.41
2016-12-19T19:30:00.590Z,20.34
2016-12-19T19:30:41.241Z,20.38
2016-12-19T19:31:21.866Z,20.33
2016-12-19T19:32:02.603Z,20.33
2016-12-19T19:32:43.369Z,20.3
2016-12-19T19:33:24.043Z,20.23
2016-12-19T19:34:04.680Z,20.39
2016-12-19T19:34:45.313Z,20.23
2016-12-19T19:35:25.974Z,20.25
2016-12-19T19:36:06.604Z,20.27
2016-12-19T19:36:47.261Z,20.21
2016-12-19T19:37:27.878Z,20.21
2016-12-19T19:38:08.554Z,20.23
2016-12-19T19:38:49.184Z,20.23
2016-12-19T19:39:29.895Z,20.23
2016-12-19T19:40:10.530Z,20.24
2016-12-19T19:40:51.164Z,20.1
2016-12-19T19:41:31.858Z,20.15
2016-12-19T19:42:12.517Z,20.12
2016-12-19T19:42:53.175Z,20.12
2016-12-19T19:43:33.906Z,20.1
2016-12-19T19:44:14.641Z,20.09
2016-12-19T19:44:55.301Z,20.03
2016-12-19T19:45:35.992Z,20.06
2016-12-19T19:46:16.723Z,20.13
2016-12-19T19:46:57.368Z,20.06
2016-12-19T19:47:38.007Z,20.09
2016-12-19T19:48:18.736Z,20.09
2016-12-19T19:48:59.453Z,20.09
2016-12-19T19:49:40.081Z,20.09
2016-12-19T19:50:20.859Z,20.03
2016-12-19T19:51:01.549Z,20
2016-12-19T19:51:42.264Z,20
2016-12-19T19:52:22.904Z,19.94
2016-12-19T19:53:03.551Z,19.88
2016-12-19T19:53:44.188Z,20
2016-12-19T19:54:24.857Z,19.91
2016-12-19T19:55:05.494Z,19.94
2016-12-19T19:55:46.129Z,19.98
2016-12-19T19:56:26.752Z,19.98
2016-12-19T19:57:07.388Z,19.98
2016-12-19T19:57:48.048Z,19.8
2016-12-19T19:58:28.706Z,19.83
2016-12-19T19:59:09.346Z,19.79
2016-12-19T19:59:50.032Z,19.78
2016-12-19T20:00:30.723Z,19.83
2016-12-19T20:01:11.876Z,19.8
2016-12-19T20:01:52.504Z,19.91
2016-12-19T20:02:33.148Z,19.88
2016-12-19T20:03:13.796Z,19.84
2016-12-19T20:03:54.438Z,19.83
2016-12-19T20:04:35.120Z,19.88
2016-12-19T20:05:15.754Z,19.79
2016-12-19T20:05:56.400Z,19.8
2016-12-19T20:06:37.035Z,19.8
2016-12-19T20:07:17.670Z,19.84
2016-12-19T20:07:58.312Z,19.8
2016-12-19T20:08:38.976Z,19.88
2016-12-19T20:09:19.619Z,19.76
2016-12-19T20:10:00.283Z,19.79
2016-12-19T20:10:40.919Z,19.8
2016-12-19T20:11:21.561Z,19.76
2016-12-19T20:12:02.191Z,19.79
2016-12-19T20:12:42.849Z,19.76
2016-12-19T20:13:23.486Z,19.68
2016-12-19T20:14:04.116Z,19.7
2016-12-19T20:14:44.748Z,19.72
2016-12-19T20:15:25.387Z,19.72
2016-12-19T20:16:06.067Z,19.69
2016-12-19T20:16:46.716Z,19.7
2016-12-19T20:17:27.429Z,19.72
2016-12-19T20:18:08.063Z,19.68
2016-12-19T20:18:48.709Z,19.7
2016-12-19T20:19:29.357Z,19.7
2016-12-19T20:20:09.991Z,19.63
2016-12-19T20:20:50.637Z,19.73
2016-12-19T20:21:31.270Z,19.69
2016-12-19T20:22:11.923Z,19.72
2016-12-19T20:22:52.580Z,19.58
2016-12-19T20:23:33.222Z,19.65
2016-12-19T20:24:13.877Z,19.68
2016-12-19T20:24:54.555Z,19.63
2016-12-19T20:25:35.242Z,19.63
2016-12-19T20:26:15.887Z,19.65
2016-12-19T20:26:56.530Z,19.63
2016-12-19T20:27:37.181Z,19.63
2016-12-19T20:28:17.809Z,19.6
2016-12-19T20:28:58.436Z,19.57
2016-12-19T20:29:39.127Z,19.55
2016-12-19T20:30:19.764Z,19.5
2016-12-19T20:31:00.421Z,19.53
2016-12-19T20:31:41.066Z,19.54
2016-12-19T20:32:21.759Z,19.54
2016-12-19T20:33:02.402Z,19.55
2016-12-19T20:33:43.122Z,19.55
2016-12-19T20:34:23.750Z,19.57
2016-12-19T20:35:04.452Z,19.5
2016-12-19T20:35:45.120Z,19.54
2016-12-19T20:36:25.834Z,19.58
2016-12-19T20:37:06.497Z,19.5
2016-12-19T20:37:47.135Z,19.48
2016-12-19T20:38:27.835Z,19.47
2016-12-19T20:39:08.562Z,19.51
2016-12-19T20:39:49.241Z,19.5
2016-12-19T20:40:29.907Z,19.39
2016-12-19T20:41:10.624Z,19.46
2016-12-19T20:41:51.364Z,19.48
2016-12-19T20:42:32.142Z,19.4
2016-12-19T20:43:12.719Z,19.43
2016-12-19T20:43:54.097Z,19.46
2016-12-19T20:44:34.728Z,19.42
2016-12-19T20:45:15.362Z,19.54
2016-12-19T20:45:56.128Z,19.43
2016-12-19T20:46:36.762Z,19.53
2016-12-19T20:47:17.405Z,19.38
2016-12-19T20:47:58.035Z,19.42
2016-12-19T20:48:38.666Z,19.42
2016-12-19T20:49:19.358Z,19.39
2016-12-19T20:50:00.028Z,19.53
2016-12-19T20:50:40.657Z,19.42
2016-12-19T20:51:21.318Z,19.43
2016-12-19T20:52:02.018Z,19.4
2016-12-19T20:52:42.720Z,19.42
2016-12-19T20:53:23.420Z,19.36
2016-12-19T20:54:04.060Z,19.46
2016-12-19T20:54:44.704Z,19.38
2016-12-19T20:55:25.339Z,19.4
2016-12-19T20:56:05.965Z,19.33
2016-12-19T20:56:46.631Z,19.4
2016-12-19T20:57:27.271Z,19.36
2016-12-19T20:58:07.915Z,19.36
2016-12-19T20:58:48.543Z,19.39
2016-12-19T20:59:29.198Z,19.35
2016-12-19T21:00:09.826Z,19.24
2016-12-19T21:00:50.463Z,19.32
2016-12-19T21:01:31.103Z,19.38
2016-12-19T21:02:11.771Z,19.29
2016-12-19T21:02:52.488Z,19.36
2016-12-19T21:03:33.136Z,19.43
2016-12-19T21:04:13.770Z,19.35
2016-12-19T21:04:54.438Z,19.33
2016-12-19T21:05:35.100Z,19.39
2016-12-19T21:06:15.757Z,19.35
2016-12-19T21:06:56.387Z,19.36
2016-12-19T21:07:37.019Z,19.36
2016-12-19T21:08:17.673Z,19.36
2016-12-19T21:08:58.310Z,19.35
2016-12-19T21:09:38.995Z,19.33
2016-12-19T21:10:19.650Z,19.25
2016-12-19T21:11:00.309Z,19.32
2016-12-19T21:11:41.030Z,19.32
2016-12-19T21:12:21.671Z,19.29
2016-12-19T21:13:02.312Z,19.28
2016-12-19T21:13:42.978Z,19.28
2016-12-19T21:14:23.632Z,19.28
2016-12-19T21:15:04.293Z,19.33
2016-12-19T21:15:44.920Z,19.29
2016-12-19T21:16:25.594Z,19.25
2016-12-19T21:17:06.275Z,19.32
2016-12-19T21:17:46.923Z,19.28
2016-12-19T21:18:27.563Z,19.28
2016-12-19T21:19:08.239Z,19.31
2016-12-19T21:19:48.883Z,19.32
2016-12-19T21:20:29.585Z,19.21
2016-12-19T21:21:10.188Z,19.21
2016-12-19T21:21:50.898Z,19.23
2016-12-19T21:22:31.596Z,19.23
2016-12-19T21:23:12.262Z,19.21
2016-12-19T21:23:52.898Z,19.23
2016-12-19T21:24:33.560Z,19.23
2016-12-19T21:25:14.221Z,19.21
2016-12-19T21:25:54.865Z,19.13
2016-12-19T21:26:35.997Z,19.24
2016-12-19T21:27:16.636Z,19.23
2016-12-19T21:27:57.308Z,19.21
2016-12-19T21:28:37.941Z,19.2
2016-12-19T21:29:18.601Z,19.18
2016-12-19T21:29:59.248Z,19.18
2016-12-19T21:30:39.923Z,19.2
2016-12-19T21:31:20.611Z,19.17
2016-12-19T21:32:01.257Z,19.2
2016-12-19T21:32:41.907Z,19.14
2016-12-19T21:33:22.546Z,19.14
2016-12-19T21:34:03.201Z,19.13
2016-12-19T21:34:43.834Z,19.17
2016-12-19T21:35:24.491Z,19.13
2016-12-19T21:36:05.151Z,19.1
2016-12-19T21:36:45.774Z,19.13
2016-12-19T21:37:26.482Z,19.21
2016-12-19T21:38:07.132Z,19.13
2016-12-19T21:38:47.774Z,19.11
2016-12-19T21:39:28.502Z,19.18
2016-12-19T21:40:09.141Z,19.15
2016-12-19T21:40:49.792Z,19.13
2016-12-19T21:41:30.452Z,19.13
2016-12-19T21:42:11.117Z,19.14
2016-12-19T21:42:51.764Z,19.08
2016-12-19T21:43:32.403Z,19.06
2016-12-19T21:44:13.122Z,19.08
2016-12-19T21:44:53.765Z,19.1
2016-12-19T21:45:34.396Z,19.05
2016-12-19T21:46:15.059Z,19.06
2016-12-19T21:46:55.708Z,19.17
2016-12-19T21:47:36.357Z,19.1
2016-12-19T21:48:17.075Z,19.02
2016-12-19T21:48:57.750Z,19.02
2016-12-19T21:49:38.425Z,19.08
2016-12-19T21:50:19.094Z,19.06
2016-12-19T21:50:59.748Z,19.1
2016-12-19T21:51:40.381Z,18.99
2016-12-19T21:52:21.029Z,18.98
2016-12-19T21:53:01.669Z,18.98
2016-12-19T21:53:42.357Z,19.05
2016-12-19T21:54:23.007Z,19.02
2016-12-19T21:55:03.714Z,19.01
2016-12-19T21:55:44.338Z,18.97
2016-12-19T21:56:25.003Z,19.08
2016-12-19T21:57:05.677Z,18.95
2016-12-19T21:57:46.391Z,18.97
2016-12-19T21:58:27.094Z,19.01
2016-12-19T21:59:07.683Z,18.97
2016-12-19T21:59:48.326Z,18.94
2016-12-19T22:00:29.001Z,18.98
2016-12-19T22:01:09.654Z,18.99
2016-12-19T22:01:50.384Z,18.95